createdAt,value
2019-05-17T00:19:17.305Z,10.20
2019-05-17T00:25:02.533Z,10.10
2019-05-17T00:30:30.833Z,10.00
2019-05-17T00:36:18.242Z,10.00
2019-05-17T00:42:17.942Z,10.00
2019-05-17T00:59:51.814Z,10.00
2019-05-17T01:05:48.126Z,9.90
2019-05-17T01:11:17.445Z,9.90
2019-05-17T01:16:53.656Z,9.90
2019-05-17T01:22:22.794Z,9.90
2019-05-17T01:34:23.557Z,9.90
2019-05-17T01:40:07.808Z,9.80
2019-05-17T01:57:11.227Z,9.90
2019-05-17T02:02:48.189Z,9.90
2019-05-17T02:13:47.613Z,9.90
2019-05-17T02:19:47.489Z,9.90
2019-05-17T02:25:39.103Z,9.90
2019-05-17T02:31:33.887Z,9.90
2019-05-17T02:36:58.035Z,9.80
2019-05-17T02:47:54.663Z,9.80
2019-05-17T02:59:17.589Z,9.80
2019-05-17T03:04:53.615Z,9.70
2019-05-17T03:10:54.498Z,9.70
2019-05-17T03:17:24.297Z,9.70
2019-05-17T03:22:57.147Z,9.70
2019-05-17T03:28:53.553Z,9.70
2019-05-17T03:34:08.310Z,9.60
2019-05-17T03:39:34.298Z,9.70
2019-05-17T03:45:28.244Z,9.60
2019-05-17T03:50:52.854Z,9.60
2019-05-17T03:56:13.135Z,9.60
2019-05-17T04:01:33.742Z,9.60
2019-05-17T04:06:54.065Z,9.60
2019-05-17T04:12:14.611Z,9.60
2019-05-17T04:18:08.537Z,9.60
2019-05-17T04:24:53.249Z,9.60
2019-05-17T04:30:13.957Z,9.60
2019-05-17T04:36:58.865Z,9.70
2019-05-17T04:42:09.081Z,9.70
2019-05-17T04:47:55.987Z,9.70
2019-05-17T04:53:54.063Z,9.80
2019-05-17T04:59:19.471Z,9.80
2019-05-17T05:04:48.334Z,9.90
2019-05-17T05:10:23.578Z,10.00
2019-05-17T05:15:45.569Z,10.10
2019-05-17T05:27:32.615Z,10.20
2019-05-17T05:32:57.091Z,10.30
2019-05-17T05:38:07.287Z,10.40
2019-05-17T05:44:02.871Z,10.50
2019-05-17T05:49:04.043Z,10.50
2019-05-17T05:54:22.996Z,10.60
2019-05-17T06:00:03.034Z,10.70
2019-05-17T06:05:04.989Z,10.70
2019-05-17T06:10:14.045Z,10.70
2019-05-17T06:15:22.871Z,10.80
2019-05-17T06:20:36.893Z,10.90
2019-05-17T06:26:05.915Z,11.00
2019-05-17T06:31:08.950Z,11.10
2019-05-17T06:36:23.550Z,11.20
2019-05-17T06:41:33.298Z,11.30
2019-05-17T06:46:28.803Z,11.50
2019-05-17T06:51:31.497Z,11.60
2019-05-17T06:56:46.961Z,11.70
2019-05-17T07:01:51.306Z,11.90
2019-05-17T07:06:50.418Z,11.90
2019-05-17T07:11:55.656Z,12.00
2019-05-17T07:16:50.949Z,12.00
2019-05-17T07:21:50.348Z,12.00
2019-05-17T07:26:50.725Z,12.10
2019-05-17T07:32:14.761Z,12.20
2019-05-17T07:37:30.106Z,12.20
2019-05-17T07:43:15.634Z,12.20
2019-05-17T07:49:00.190Z,12.20
2019-05-17T07:54:14.224Z,12.30
2019-05-17T07:59:30.346Z,12.30
2019-05-17T08:04:46.664Z,12.40
2019-05-17T08:10:24.619Z,12.40
2019-05-17T08:15:40.950Z,12.50
2019-05-17T08:20:41.051Z,12.60
2019-05-17T08:26:20.884Z,12.80
2019-05-17T08:31:31.546Z,13.00
2019-05-17T08:37:20.893Z,13.10
2019-05-17T08:42:32.018Z,12.90
2019-05-17T08:49:15.610Z,13.00
2019-05-17T08:54:21.235Z,13.10
2019-05-17T08:59:36.858Z,13.10
2019-05-17T09:04:50.611Z,13.20
2019-05-17T09:09:51.194Z,13.30
2019-05-17T09:14:53.626Z,13.30
2019-05-17T09:20:04.245Z,13.40
2019-05-17T09:24:56.148Z,13.50
2019-05-17T09:30:01.799Z,13.50
2019-05-17T09:34:56.572Z,13.40
2019-05-17T09:40:00.724Z,13.30
2019-05-17T09:44:55.113Z,13.20
2019-05-17T09:50:41.384Z,13.20
2019-05-17T09:55:54.462Z,13.10
2019-05-17T10:01:11.572Z,13.00
2019-05-17T10:06:11.788Z,13.00
2019-05-17T10:11:20.054Z,13.10
2019-05-17T10:16:31.680Z,13.20
2019-05-17T10:21:34.389Z,13.40
2019-05-17T10:26:44.026Z,13.30
2019-05-17T10:32:14.917Z,13.40
2019-05-17T10:37:15.667Z,13.50
2019-05-17T10:42:21.338Z,13.60
2019-05-17T10:47:31.191Z,13.80
2019-05-17T10:52:21.602Z,13.80
2019-05-17T10:57:19.862Z,13.80
2019-05-17T11:02:15.373Z,13.70
2019-05-17T11:07:11.463Z,13.60
2019-05-17T11:12:06.990Z,13.60
2019-05-17T11:17:01.516Z,13.40
2019-05-17T11:21:58.200Z,13.40
2019-05-17T11:27:07.831Z,13.30
2019-05-17T11:32:00.719Z,13.20
2019-05-17T11:36:59.767Z,12.90
2019-05-17T11:41:54.921Z,12.80
2019-05-17T11:46:53.548Z,12.60
2019-05-17T11:51:52.506Z,12.40
2019-05-17T11:56:59.046Z,12.40
2019-05-17T12:01:53.079Z,12.60
2019-05-17T12:06:56.874Z,12.70
2019-05-17T12:11:50.888Z,12.80
2019-05-17T12:16:47.752Z,13.00
2019-05-17T12:22:11.144Z,13.40
2019-05-17T12:28:54.224Z,13.50
2019-05-17T12:33:58.828Z,13.60
2019-05-17T12:39:45.809Z,13.60
2019-05-17T12:45:23.234Z,13.90
2019-05-17T12:50:24.239Z,14.00
2019-05-17T12:56:08.181Z,14.10
2019-05-17T13:01:41.735Z,14.20
2019-05-17T13:06:49.460Z,14.20
2019-05-17T13:12:06.758Z,14.10
2019-05-17T13:17:07.142Z,13.90
2019-05-17T13:22:20.890Z,13.60
2019-05-17T13:27:40.280Z,13.30
2019-05-17T13:32:55.849Z,13.20
2019-05-17T13:37:55.970Z,13.00
2019-05-17T13:43:02.825Z,12.90
2019-05-17T13:49:11.492Z,13.00
2019-05-17T13:54:47.622Z,13.10
2019-05-17T14:00:03.198Z,13.20
2019-05-17T14:05:24.927Z,13.30
2019-05-17T14:10:53.628Z,13.30
2019-05-17T14:16:21.370Z,13.40
2019-05-17T14:23:24.062Z,13.40
2019-05-17T14:28:13.228Z,13.60
2019-05-17T14:33:53.591Z,13.70
2019-05-17T14:39:04.688Z,13.70
2019-05-17T14:44:40.668Z,13.80
2019-05-17T14:50:59.626Z,13.90
2019-05-17T14:56:05.171Z,14.00
2019-05-17T15:00:58.763Z,14.10
2019-05-17T15:05:53.493Z,14.30
2019-05-17T15:11:13.358Z,14.40
2019-05-17T15:16:17.128Z,14.50
2019-05-17T15:21:11.853Z,14.60
2019-05-17T15:26:05.257Z,14.70
2019-05-17T15:30:57.420Z,14.60
2019-05-17T15:35:52.640Z,14.50
2019-05-17T15:41:02.968Z,14.40
2019-05-17T15:46:25.671Z,14.20
2019-05-17T15:52:12.134Z,14.10
2019-05-17T15:57:01.550Z,14.00
2019-05-17T16:02:05.500Z,14.00
2019-05-17T16:07:17.921Z,14.00
2019-05-17T16:12:11.060Z,14.00
2019-05-17T16:17:29.740Z,14.10
2019-05-17T16:22:30.688Z,14.10
2019-05-17T16:27:20.152Z,14.10
2019-05-17T16:44:22.103Z,14.10
2019-05-17T16:49:22.186Z,14.10
2019-05-17T16:54:31.120Z,14.20
2019-05-17T16:59:44.030Z,14.30
2019-05-17T17:07:58.406Z,14.50
2019-05-17T17:13:33.329Z,14.50
2019-05-17T17:20:26.530Z,14.60
2019-05-17T17:28:26.005Z,14.60
2019-05-17T17:33:10.473Z,14.60
2019-05-17T17:38:02.575Z,14.60
2019-05-17T17:43:04.954Z,14.60
2019-05-17T17:49:30.331Z,14.60
2019-05-17T17:54:24.996Z,14.60
2019-05-17T18:04:47.276Z,14.50
2019-05-17T18:11:29.384Z,14.40
2019-05-17T18:16:20.949Z,14.40
2019-05-17T18:22:59.438Z,14.30
2019-05-17T18:27:59.802Z,14.20
2019-05-17T18:33:03.659Z,14.10
2019-05-17T18:43:36.548Z,14.10
2019-05-17T18:48:41.955Z,14.00
2019-05-17T18:53:59.719Z,13.90
2019-05-17T18:59:25.067Z,13.90
2019-05-17T19:28:23.334Z,13.80
2019-05-17T19:49:36.109Z,13.60
2019-05-17T22:03:15.503Z,13.20
2019-05-17T22:08:44.411Z,13.10
2019-05-17T22:18:20.015Z,13.00
2019-05-17T22:23:23.758Z,13.00
2019-05-17T22:28:26.791Z,12.90
2019-05-17T22:33:45.463Z,12.90
2019-05-17T22:45:04.281Z,12.80
2019-05-17T22:56:17.774Z,12.60
2019-05-17T23:02:39.175Z,12.40
2019-05-17T23:08:30.955Z,12.20
2019-05-17T23:14:36.712Z,12.00
2019-05-17T23:20:07.559Z,11.80
2019-05-17T23:31:11.040Z,11.50
2019-05-17T23:36:42.456Z,11.10
2019-05-17T23:53:19.695Z,10.90
